Terminal Aerodrome Forecast
Issued by NWS

Home | Current Version | Previous Version | Text Only | Print | Product List | Glossary On
Versions: 1 2 3 4 5 6 7 8 9 10 11 12 13
000
FTUS45 KBOI 192333
TAFBKE
TAF
KBKE 192333Z 2000/2024 11010KT P6SM BKN150
     FM201000 10010KT P6SM -RA SCT015 OVC035 PROB30 2010/2013 -FZRA=

USA.gov is the U.S. government's official web portal to all federal, state and local government web resources and services.